DataTemp.
Ø
Temp.
Max
Temp.
Min
UmiditàPressionePioggiaVento
Ø
Vento
dir. Ø
Vento
Max
Rad. solare
Ø
Rad. solare
Max
Indice UV
Max
23.07.2024 00:0021.0°C21.0°C20.9°C87.9%1014.9hPa0.0mm1.1km/hS6.5km/h0.0W/m²0W/m²
23.07.2024 00:0520.9°C21.0°C20.9°C86.6%1014.9hPa0.0mm2.3km/hS7.9km/h0.0W/m²0W/m²
23.07.2024 00:1021.1°C21.1°C21.0°C86.0%1014.9hPa0.0mm3.2km/hW7.9km/h0.0W/m²0W/m²
23.07.2024 00:1521.2°C21.3°C21.1°C85.8%1014.9hPa0.0mm3.2km/hSSW7.9km/h0.0W/m²0W/m²
23.07.2024 00:2021.2°C21.3°C21.2°C85.0%1014.8hPa0.0mm3.2km/hS7.9km/h0.0W/m²0W/m²
23.07.2024 00:2521.2°C21.2°C21.1°C85.0%1014.9hPa0.0mm2.7km/hS3.2km/h0.0W/m²0W/m²
23.07.2024 00:3021.0°C21.1°C20.9°C85.1%1014.8hPa0.0mm1.4km/hSSW6.5km/h0.0W/m²0W/m²
23.07.2024 00:3520.9°C20.9°C20.9°C85.6%1014.8hPa0.0mm2.4km/hS9.7km/h0.0W/m²0W/m²
23.07.2024 00:4020.9°C21.0°C20.9°C86.0%1014.8hPa0.0mm3.2km/hS6.5km/h0.0W/m²0W/m²
23.07.2024 00:4520.9°C20.9°C20.8°C86.0%1014.8hPa0.0mm3.2km/hS6.5km/h0.0W/m²0W/m²
23.07.2024 00:5020.8°C20.9°C20.8°C86.0%1014.8hPa0.0mm3.2km/hSSW6.5km/h0.0W/m²0W/m²
23.07.2024 00:5520.8°C20.8°C20.8°C85.8%1014.9hPa0.0mm2.6km/hSE4.7km/h0.0W/m²0W/m²
23.07.2024 01:0020.8°C20.8°C20.8°C85.0%1014.9hPa0.0mm1.4km/hSSW7.9km/h0.0W/m²0W/m²
23.07.2024 01:0520.8°C20.8°C20.7°C85.0%1014.8hPa0.0mm1.4km/hSSE3.2km/h0.0W/m²0W/m²
23.07.2024 01:1020.8°C20.8°C20.7°C85.0%1014.8hPa0.0mm1.0km/hSSE3.2km/h0.0W/m²0W/m²
23.07.2024 01:1520.8°C20.8°C20.8°C85.4%1014.9hPa0.0mm0.8km/hSW4.7km/h0.0W/m²0W/m²
23.07.2024 01:2020.8°C20.9°C20.8°C85.6%1014.9hPa0.0mm1.7km/hSSW4.7km/h0.0W/m²0W/m²
23.07.2024 01:2520.9°C20.9°C20.8°C85.6%1014.9hPa0.0mm2.0km/hSSW1.4km/h0.0W/m²0W/m²
23.07.2024 01:3020.9°C20.9°C20.9°C86.0%1014.9hPa0.0mm1.0km/hSSW1.4km/h0.0W/m²0W/m²
23.07.2024 01:3520.9°C20.9°C20.9°C86.0%1015.0hPa0.0mm0.0km/hSSW0.0km/h0.0W/m²0W/m²
23.07.2024 01:4020.9°C20.9°C20.9°C86.2%1015.0hPa0.0mm0.0km/hSSW1.4km/h0.0W/m²0W/m²
23.07.2024 01:4520.9°C20.9°C20.9°C86.8%1014.9hPa0.0mm0.0km/hWNW3.2km/h0.0W/m²0W/m²
23.07.2024 01:5021.0°C21.1°C20.9°C87.0%1014.9hPa0.0mm0.5km/hWSW3.2km/h0.0W/m²0W/m²
23.07.2024 01:5521.0°C21.1°C21.0°C87.3%1015.0hPa0.0mm1.4km/hW4.7km/h0.0W/m²0W/m²
23.07.2024 02:0020.9°C21.0°C20.9°C88.0%1015.0hPa0.0mm1.4km/hW3.2km/h0.0W/m²0W/m²
23.07.2024 02:0520.9°C21.0°C20.9°C88.0%1014.9hPa0.0mm1.3km/hWSW3.2km/h0.0W/m²0W/m²
23.07.2024 02:1020.9°C20.9°C20.9°C88.0%1014.9hPa0.0mm1.3km/hSW3.2km/h0.0W/m²0W/m²
23.07.2024 02:1520.8°C20.9°C20.8°C88.0%1014.9hPa0.0mm1.4km/hSW1.4km/h0.0W/m²0W/m²
23.07.2024 02:2020.8°C20.8°C20.8°C88.0%1014.9hPa0.0mm0.1km/hSW0.0km/h0.0W/m²0W/m²
23.07.2024 02:2520.8°C20.8°C20.7°C87.9%1014.8hPa0.0mm0.0km/hESE3.2km/h0.0W/m²0W/m²
23.07.2024 02:3020.7°C20.7°C20.6°C87.8%1014.8hPa0.0mm1.0km/hESE3.2km/h0.0W/m²0W/m²
23.07.2024 02:3520.6°C20.7°C20.6°C88.0%1014.8hPa0.0mm1.4km/hNNE4.7km/h0.0W/m²0W/m²
23.07.2024 02:4020.6°C20.6°C20.5°C88.8%1014.8hPa0.0mm1.4km/hN3.2km/h0.0W/m²0W/m²
23.07.2024 02:4520.4°C20.5°C20.4°C89.0%1014.9hPa0.0mm0.4km/hESE1.4km/h0.0W/m²0W/m²
23.07.2024 02:5020.4°C20.4°C20.4°C89.0%1014.8hPa0.0mm0.0km/hESE1.4km/h0.0W/m²0W/m²
23.07.2024 02:5520.4°C20.4°C20.4°C89.7%1014.9hPa0.0mm0.0km/hESE1.4km/h0.0W/m²0W/m²
23.07.2024 03:0020.4°C20.4°C20.3°C90.0%1014.9hPa0.0mm0.0km/hESE1.4km/h0.0W/m²0W/m²
23.07.2024 03:0520.3°C20.3°C20.3°C90.0%1014.8hPa0.0mm0.0km/hESE1.4km/h0.0W/m²0W/m²
23.07.2024 03:1020.2°C20.3°C20.2°C90.0%1014.9hPa0.0mm0.0km/hESE1.4km/h0.0W/m²0W/m²
23.07.2024 03:1520.1°C20.2°C20.1°C90.0%1015.0hPa0.0mm0.0km/hS3.2km/h0.0W/m²0W/m²
23.07.2024 03:2020.1°C20.1°C20.0°C90.0%1014.9hPa0.0mm0.0km/hSE1.4km/h0.0W/m²0W/m²
23.07.2024 03:2519.9°C20.0°C19.9°C90.0%1014.9hPa0.0mm0.0km/hSE0.0km/h0.0W/m²0W/m²
23.07.2024 03:3019.9°C19.9°C19.9°C90.0%1014.9hPa0.0mm0.0km/hSE0.0km/h0.0W/m²0W/m²
23.07.2024 03:3519.9°C19.9°C19.9°C89.0%1014.9hPa0.0mm0.0km/hSE0.0km/h0.0W/m²0W/m²
23.07.2024 03:4019.9°C20.0°C19.9°C89.0%1014.9hPa0.0mm0.0km/hSE1.4km/h0.0W/m²0W/m²
23.07.2024 03:4520.0°C20.1°C19.9°C89.0%1015.0hPa0.0mm0.0km/hENE1.4km/h0.0W/m²0W/m²
23.07.2024 03:5020.0°C20.0°C19.9°C89.0%1015.0hPa0.0mm0.0km/hENE3.2km/h0.0W/m²0W/m²
23.07.2024 03:5519.9°C20.0°C19.9°C89.0%1015.0hPa0.0mm0.0km/hENE0.0km/h0.0W/m²0W/m²
23.07.2024 04:0020.0°C20.0°C19.9°C89.0%1015.0hPa0.0mm0.0km/hENE0.0km/h0.0W/m²0W/m²
23.07.2024 04:0520.0°C20.1°C19.9°C89.0%1015.0hPa0.0mm0.0km/hENE3.2km/h0.0W/m²0W/m²
23.07.2024 04:1019.9°C20.0°C19.9°C89.0%1015.1hPa0.0mm0.0km/hSE3.2km/h0.0W/m²0W/m²
23.07.2024 04:1519.9°C19.9°C19.9°C89.0%1015.1hPa0.0mm0.0km/hSE1.4km/h0.0W/m²0W/m²
23.07.2024 04:2019.9°C19.9°C19.8°C89.0%1015.0hPa0.0mm0.0km/hNE3.2km/h0.0W/m²0W/m²
23.07.2024 04:2519.9°C19.9°C19.9°C89.0%1015.1hPa0.0mm0.0km/hNE1.4km/h0.0W/m²0W/m²
23.07.2024 04:3019.9°C20.0°C19.9°C89.0%1015.1hPa0.0mm0.0km/hENE1.4km/h0.0W/m²0W/m²
23.07.2024 04:3520.1°C20.1°C20.0°C89.0%1015.1hPa0.0mm0.0km/hENE1.4km/h0.0W/m²0W/m²
23.07.2024 04:4020.2°C20.2°C20.1°C89.7%1015.1hPa0.0mm0.0km/hE3.2km/h0.0W/m²0W/m²
23.07.2024 04:4520.2°C20.2°C20.1°C90.0%1015.1hPa0.0mm1.4km/hESE4.7km/h0.0W/m²0W/m²
23.07.2024 04:5020.2°C20.2°C20.1°C90.0%1015.1hPa0.0mm1.4km/hESE3.2km/h0.0W/m²0W/m²
23.07.2024 04:5520.1°C20.2°C20.1°C90.0%1015.1hPa0.0mm0.6km/hESE1.4km/h0.0W/m²0W/m²
23.07.2024 05:0020.1°C20.1°C20.0°C90.2%1015.1hPa0.0mm0.0km/hESE1.4km/h0.0W/m²0W/m²
23.07.2024 05:0520.1°C20.1°C20.0°C91.0%1015.2hPa0.0mm0.0km/hESE0.0km/h0.0W/m²0W/m²
23.07.2024 05:1020.0°C20.1°C19.9°C91.0%1015.2hPa0.0mm0.0km/hESE0.0km/h0.0W/m²0W/m²
23.07.2024 05:1519.9°C20.0°C19.9°C91.0%1015.1hPa0.0mm0.0km/hESE0.0km/h0.0W/m²0W/m²
23.07.2024 05:2019.9°C20.0°C19.9°C91.0%1015.2hPa0.0mm0.0km/hESE1.4km/h0.0W/m²0W/m²
23.07.2024 05:2519.9°C20.0°C19.9°C91.0%1015.2hPa0.0mm0.0km/hESE1.4km/h0.0W/m²0W/m²
23.07.2024 05:3019.9°C19.9°C19.8°C91.0%1015.1hPa0.0mm0.0km/hESE3.2km/h0.0W/m²0W/m²
23.07.2024 05:3519.8°C19.8°C19.8°C90.7%1015.2hPa0.0mm0.0km/hESE3.2km/h0.0W/m²0W/m²
23.07.2024 05:4019.8°C19.8°C19.8°C91.0%1015.2hPa0.0mm0.0km/hESE0.0km/h0.0W/m²0W/m²
23.07.2024 05:4519.8°C19.8°C19.8°C91.0%1015.2hPa0.0mm0.0km/hESE1.4km/h0.0W/m²0W/m²
23.07.2024 05:5019.8°C19.9°C19.8°C91.0%1015.2hPa0.0mm0.0km/hESE1.4km/h0.0W/m²0W/m²
23.07.2024 05:5519.9°C19.9°C19.9°C91.0%1015.2hPa0.0mm0.0km/hENE1.4km/h1.7W/m²5W/m²
23.07.2024 06:0019.9°C19.9°C19.9°C91.0%1015.2hPa0.0mm0.0km/hNE1.4km/h6.0W/m²7W/m²
23.07.2024 06:0519.9°C19.9°C19.9°C91.5%1015.3hPa0.0mm0.0km/hE1.4km/h9.0W/m²11W/m²
23.07.2024 06:1019.9°C19.9°C19.9°C92.0%1015.3hPa0.0mm0.0km/hSE4.7km/h11.8W/m²12W/m²
23.07.2024 06:1519.9°C19.9°C19.8°C92.0%1015.3hPa0.0mm1.0km/hESE4.7km/h14.7W/m²16W/m²
23.07.2024 06:2019.8°C19.8°C19.8°C92.0%1015.4hPa0.0mm0.4km/hESE1.4km/h18.5W/m²21W/m²
23.07.2024 06:2519.8°C19.8°C19.8°C92.0%1015.3hPa0.0mm0.0km/hNNE3.2km/h24.3W/m²26W/m²
23.07.2024 06:3019.8°C19.8°C19.8°C92.0%1015.3hPa0.0mm0.0km/hNNE1.4km/h29.0W/m²32W/m²
23.07.2024 06:3519.8°C19.8°C19.8°C92.0%1015.4hPa0.0mm0.0km/hNNE1.4km/h32.2W/m²33W/m²
23.07.2024 06:4019.8°C19.8°C19.8°C92.0%1015.4hPa0.0mm0.0km/hNNE1.4km/h33.3W/m²35W/m²
23.07.2024 06:4519.8°C19.8°C19.8°C92.0%1015.4hPa0.0mm0.0km/hE3.2km/h36.6W/m²39W/m²
23.07.2024 06:5019.8°C19.8°C19.8°C92.0%1015.5hPa0.0mm0.0km/hE0.0km/h42.0W/m²44W/m²
23.07.2024 06:5519.8°C19.8°C19.8°C92.0%1015.5hPa0.0mm0.0km/hE3.2km/h48.8W/m²53W/m²
23.07.2024 07:0019.8°C19.8°C19.8°C92.0%1015.5hPa0.0mm0.0km/hNE3.2km/h60.3W/m²65W/m²
23.07.2024 07:0519.8°C19.8°C19.8°C92.0%1015.5hPa0.0mm0.6km/hNE1.4km/h74.2W/m²79W/m²
23.07.2024 07:1019.9°C19.9°C19.8°C92.1%1015.6hPa0.0mm0.0km/hNE0.0km/h86.8W/m²93W/m²
23.07.2024 07:1520.0°C20.1°C19.9°C93.0%1015.6hPa0.0mm0.0km/hNE1.4km/h96.8W/m²98W/m²
23.07.2024 07:2020.1°C20.2°C20.1°C92.1%1015.7hPa0.0mm0.0km/hESE3.2km/h101.0W/m²104W/m²
23.07.2024 07:2520.2°C20.2°C20.2°C92.0%1015.6hPa0.0mm0.8km/hNNE3.2km/h111.7W/m²116W/m²
23.07.2024 07:3020.2°C20.3°C20.2°C92.0%1015.6hPa0.0mm0.4km/hNE1.4km/h121.3W/m²128W/m²
23.07.2024 07:3520.3°C20.3°C20.3°C92.0%1015.6hPa0.0mm0.2km/hNE3.2km/h138.3W/m²144W/m²
23.07.2024 07:4020.3°C20.3°C20.3°C91.3%1015.6hPa0.0mm1.4km/hNNE3.2km/h138.7W/m²144W/m²
23.07.2024 07:4520.5°C20.6°C20.4°C91.1%1015.6hPa0.0mm0.4km/hNNE0.0km/h130.0W/m²134W/m²
23.07.2024 07:5020.6°C20.7°C20.6°C91.0%1015.7hPa0.0mm0.0km/hENE3.2km/h123.9W/m²128W/m²
23.07.2024 07:5520.7°C20.8°C20.7°C90.9%1015.7hPa0.0mm0.0km/hESE3.2km/h121.8W/m²127W/m²
23.07.2024 08:0020.8°C20.8°C20.8°C90.0%1015.7hPa0.0mm0.0km/hSE3.2km/h138.8W/m²146W/m²
23.07.2024 08:0520.9°C20.9°C20.8°C90.0%1015.7hPa0.0mm0.0km/hE3.2km/h147.3W/m²148W/m²
23.07.2024 08:1021.0°C21.1°C20.9°C89.7%1015.7hPa0.0mm0.0km/hENE3.2km/h146.3W/m²148W/m²
23.07.2024 08:1521.0°C21.1°C20.9°C89.0%1015.8hPa0.0mm0.0km/hNNE1.4km/h140.5W/m²144W/m²
23.07.2024 08:2021.1°C21.1°C21.1°C88.3%1015.8hPa0.0mm0.3km/hNNE3.2km/h142.8W/m²148W/m²
23.07.2024 08:2521.2°C21.2°C21.1°C88.0%1015.8hPa0.0mm0.0km/hNNE1.4km/h148.7W/m²151W/m²
23.07.2024 08:3021.3°C21.3°C21.2°C88.0%1015.8hPa0.0mm0.0km/hE3.2km/h166.5W/m²176W/m²
23.07.2024 08:3521.4°C21.4°C21.3°C87.4%1015.9hPa0.0mm0.0km/hNNE3.2km/h170.7W/m²178W/m²
23.07.2024 08:4021.5°C21.6°C21.4°C86.5%1015.9hPa0.0mm0.0km/hNNE1.4km/h157.3W/m²162W/m²
23.07.2024 08:4521.6°C21.7°C21.6°C86.0%1015.9hPa0.0mm0.5km/hN4.7km/h156.8W/m²160W/m²
23.07.2024 08:5021.6°C21.6°C21.6°C85.4%1016.0hPa0.0mm1.4km/hN1.4km/h157.5W/m²160W/m²
23.07.2024 08:5521.6°C21.7°C21.6°C85.0%1016.0hPa0.0mm0.6km/hESE3.2km/h156.8W/m²162W/m²
23.07.2024 09:0021.7°C21.8°C21.7°C85.6%1016.0hPa0.0mm0.0km/hESE1.4km/h160.2W/m²165W/m²
23.07.2024 09:0521.8°C21.8°C21.7°C84.7%1016.0hPa0.0mm0.0km/hNE3.2km/h147.7W/m²158W/m²
23.07.2024 09:1021.8°C21.8°C21.7°C84.0%1016.1hPa0.0mm0.0km/hNE1.4km/h134.5W/m²142W/m²
23.07.2024 09:1521.8°C21.9°C21.8°C84.0%1016.1hPa0.0mm0.0km/hNE1.4km/h155.7W/m²160W/m²
23.07.2024 09:2021.9°C21.9°C21.9°C84.0%1016.1hPa0.0mm0.0km/hNE1.4km/h152.5W/m²156W/m²
23.07.2024 09:2521.9°C22.0°C21.9°C83.2%1016.1hPa0.0mm0.0km/hNE1.4km/h143.5W/m²149W/m²
23.07.2024 09:3022.1°C22.1°C22.0°C82.8%1016.1hPa0.0mm0.0km/hNE1.4km/h138.6W/m²141W/m²
23.07.2024 09:3522.2°C22.3°C22.1°C82.0%1016.2hPa0.0mm0.0km/hWNW3.2km/h146.2W/m²153W/m²
23.07.2024 09:4022.3°C22.3°C22.2°C82.0%1016.2hPa0.0mm0.0km/hW3.2km/h170.2W/m²181W/m²
23.07.2024 09:4522.4°C22.6°C22.3°C82.3%1016.2hPa0.0mm0.0km/hW1.4km/h190.8W/m²197W/m²
23.07.2024 09:5022.6°C22.6°C22.6°C81.7%1016.2hPa0.0mm0.0km/hWSW3.2km/h195.3W/m²197W/m²
23.07.2024 09:5522.7°C22.7°C22.6°C81.0%1016.2hPa0.0mm0.5km/hSSW4.7km/h190.2W/m²193W/m²
23.07.2024 10:0022.8°C22.8°C22.7°C80.5%1016.2hPa0.0mm1.4km/hWSW3.2km/h185.3W/m²186W/m²
23.07.2024 10:0522.8°C22.9°C22.8°C81.0%1016.2hPa0.0mm1.4km/hWSW1.4km/h198.0W/m²211W/m²
23.07.2024 10:1023.0°C23.1°C22.9°C81.8%1016.2hPa0.0mm0.1km/hNNW1.4km/h224.6W/m²232W/m²
23.07.2024 10:1523.1°C23.1°C23.1°C82.2%1016.2hPa0.0mm0.0km/hNW3.2km/h251.2W/m²279W/m²
23.07.2024 10:2023.1°C23.1°C23.1°C82.2%1016.3hPa0.0mm0.0km/hSW1.4km/h271.0W/m²278W/m²
23.07.2024 10:2523.0°C23.1°C22.9°C82.3%1016.2hPa0.0mm0.0km/hW3.2km/h267.5W/m²269W/m²
23.07.2024 10:3023.1°C23.1°C22.9°C83.1%1016.2hPa0.0mm0.0km/hN3.2km/h248.5W/m²257W/m²
23.07.2024 10:3523.0°C23.0°C22.9°C82.8%1016.2hPa0.0mm0.0km/hE1.4km/h225.0W/m²234W/m²
23.07.2024 10:4023.1°C23.2°C23.0°C83.9%1016.1hPa0.0mm0.0km/hE1.4km/h207.0W/m²213W/m²
23.07.2024 10:4523.1°C23.1°C23.0°C83.8%1016.1hPa0.2mm0.0km/hNNE1.4km/h202.5W/m²207W/m²
23.07.2024 10:5023.1°C23.1°C23.1°C83.8%1016.1hPa0.0mm0.0km/hESE3.2km/h222.3W/m²234W/m²
23.07.2024 10:5523.0°C23.1°C22.9°C83.4%1016.0hPa0.0mm0.0km/hSE3.2km/h251.2W/m²265W/m²
23.07.2024 11:0023.0°C23.1°C22.9°C83.6%1016.1hPa0.0mm0.0km/hESE1.4km/h291.8W/m²309W/m²
23.07.2024 11:0523.1°C23.2°C23.0°C83.5%1016.0hPa0.0mm0.0km/hESE3.2km/h337.0W/m²383W/m²
23.07.2024 11:1023.2°C23.3°C23.1°C83.1%1016.0hPa0.0mm0.6km/hSSW3.2km/h321.7W/m²352W/m²
23.07.2024 11:1523.3°C23.4°C23.2°C83.1%1016.0hPa0.0mm1.4km/hE3.2km/h288.8W/m²292W/m²
23.07.2024 11:2023.3°C23.3°C23.2°C81.3%1016.0hPa0.0mm1.4km/hSSW4.7km/h298.8W/m²302W/m²
23.07.2024 11:2523.3°C23.4°C23.2°C80.6%1015.9hPa0.0mm1.4km/hW3.2km/h306.8W/m²316W/m²
23.07.2024 11:3023.7°C24.1°C23.4°C81.6%1015.8hPa0.0mm1.2km/hSSE4.7km/h473.2W/m²933W/m²
23.07.2024 11:3524.4°C24.6°C24.1°C80.0%1015.7hPa0.0mm0.5km/hNNE4.7km/h904.5W/m²942W/m²
23.07.2024 11:4024.7°C24.8°C24.6°C77.0%1015.7hPa0.0mm1.4km/hNNE4.7km/h859.7W/m²877W/m²
23.07.2024 11:4525.0°C25.2°C24.7°C75.9%1015.6hPa0.0mm3.1km/hNNE4.7km/h855.5W/m²872W/m²
23.07.2024 11:5025.2°C25.3°C25.1°C73.9%1015.5hPa0.0mm2.4km/hNNE3.2km/h677.4W/m²789W/m²
23.07.2024 11:5525.2°C25.3°C25.1°C73.5%1015.6hPa0.0mm1.4km/hNE4.7km/h749.5W/m²944W/m²
23.07.2024 12:0025.6°C25.8°C25.3°C74.1%1015.5hPa0.0mm1.4km/hNNE6.5km/h894.0W/m²1039W/m²
23.07.2024 12:0525.8°C25.9°C25.7°C71.5%1015.5hPa0.0mm1.4km/hN6.5km/h1029.3W/m²1062W/m²
23.07.2024 12:1025.8°C26.0°C25.7°C71.8%1015.5hPa0.0mm1.4km/hNNW6.5km/h897.7W/m²1062W/m²
23.07.2024 12:1526.0°C26.1°C25.9°C71.3%1015.4hPa0.0mm1.4km/hSE7.9km/h966.2W/m²1125W/m²
23.07.2024 12:2026.2°C26.4°C25.9°C70.4%1015.3hPa0.0mm1.4km/hSSE6.5km/h1107.0W/m²1107W/m²
23.07.2024 12:2526.1°C26.2°C26.1°C69.0%1015.3hPa0.0mm1.4km/hNW6.5km/h823.2W/m²1107W/m²
23.07.2024 12:3026.1°C26.1°C26.0°C69.2%1015.3hPa0.0mm1.4km/hN6.5km/h504.8W/m²608W/m²
23.07.2024 12:3526.5°C26.6°C26.2°C68.4%1015.3hPa0.0mm2.0km/hNE6.5km/h849.5W/m²933W/m²
23.07.2024 12:4026.5°C26.6°C26.4°C70.8%1015.3hPa0.0mm3.2km/hNNE7.9km/h893.8W/m²921W/m²
23.07.2024 12:4526.9°C27.1°C26.6°C70.7%1015.3hPa0.0mm3.2km/hNNE7.9km/h930.0W/m²944W/m²
23.07.2024 12:5026.7°C26.9°C26.5°C66.9%1015.3hPa0.0mm3.2km/hN6.5km/h765.5W/m²947W/m²
23.07.2024 12:5526.7°C27.0°C26.6°C67.4%1015.2hPa0.0mm3.0km/hNNE6.5km/h857.3W/m²933W/m²
23.07.2024 13:0027.2°C27.2°C27.1°C65.1%1015.2hPa0.0mm1.4km/hNNE11.2km/h952.4W/m²974W/m²
23.07.2024 13:0527.3°C27.5°C27.2°C68.2%1015.1hPa0.0mm3.1km/hN7.9km/h996.5W/m²1020W/m²
23.07.2024 13:1027.1°C27.3°C26.8°C68.1%1015.1hPa0.0mm3.2km/hNNE13.0km/h433.8W/m²1020W/m²
23.07.2024 13:1526.5°C26.7°C26.3°C68.9%1015.0hPa0.0mm3.2km/hNE6.5km/h337.8W/m²374W/m²
23.07.2024 13:2026.1°C26.2°C25.9°C70.4%1015.0hPa0.0mm3.2km/hNNE11.2km/h345.3W/m²397W/m²
23.07.2024 13:2525.7°C25.9°C25.6°C72.9%1015.0hPa0.0mm3.2km/hNNE7.9km/h272.0W/m²292W/m²
23.07.2024 13:3025.3°C25.5°C25.1°C75.5%1015.0hPa0.0mm3.2km/hNNE11.2km/h236.7W/m²292W/m²
23.07.2024 13:3525.0°C25.1°C24.9°C75.9%1015.1hPa0.0mm4.3km/hNNE7.9km/h165.6W/m²176W/m²
23.07.2024 13:4024.8°C25.0°C24.5°C78.6%1015.1hPa2.0mm4.2km/hNNE7.9km/h146.2W/m²153W/m²
23.07.2024 13:4524.2°C24.4°C23.9°C80.3%1015.0hPa0.4mm3.2km/hNNE6.5km/h169.3W/m²190W/m²
23.07.2024 13:5023.7°C23.9°C23.6°C82.8%1015.1hPa0.0mm3.2km/hNE6.5km/h235.8W/m²283W/m²
23.07.2024 13:5523.6°C23.7°C23.5°C84.4%1015.1hPa0.0mm2.3km/hNNE4.7km/h268.2W/m²322W/m²
23.07.2024 14:0023.6°C23.7°C23.4°C84.5%1015.2hPa0.0mm1.4km/hNNW6.5km/h276.2W/m²292W/m²
23.07.2024 14:0523.7°C23.9°C23.5°C81.3%1015.2hPa0.0mm1.4km/hNNW4.7km/h292.5W/m²306W/m²
23.07.2024 14:1024.0°C24.2°C23.8°C79.4%1015.2hPa0.0mm2.2km/hNNE4.7km/h274.0W/m²279W/m²
23.07.2024 14:1524.4°C24.4°C24.3°C81.7%1015.2hPa0.0mm1.4km/hNNE4.7km/h268.8W/m²279W/m²
23.07.2024 14:2024.4°C24.5°C24.3°C80.0%1015.2hPa0.0mm1.4km/hESE4.7km/h311.0W/m²343W/m²
23.07.2024 14:2524.7°C24.8°C24.5°C82.3%1015.2hPa0.0mm1.4km/hESE3.2km/h444.0W/m²512W/m²
23.07.2024 14:3024.9°C25.1°C24.8°C81.7%1015.1hPa0.0mm1.4km/hNNE4.7km/h412.2W/m²468W/m²
23.07.2024 14:3524.8°C24.9°C24.7°C81.9%1015.1hPa0.0mm1.7km/hNNE13.0km/h331.7W/m²348W/m²
23.07.2024 14:4024.6°C24.6°C24.5°C82.9%1015.1hPa0.0mm3.2km/hNE7.9km/h309.4W/m²313W/m²
23.07.2024 14:4524.5°C24.6°C24.4°C82.7%1015.1hPa0.0mm3.2km/hNE6.5km/h294.2W/m²302W/m²
23.07.2024 14:5024.3°C24.4°C24.2°C81.0%1015.2hPa0.0mm3.2km/hNNE13.0km/h249.7W/m²274W/m²
23.07.2024 14:5524.0°C24.1°C23.8°C81.2%1015.1hPa0.0mm3.2km/hN9.7km/h215.0W/m²220W/m²
23.07.2024 15:0023.6°C23.8°C23.4°C80.6%1015.2hPa0.0mm3.2km/hNNE13.0km/h217.7W/m²220W/m²
23.07.2024 15:0523.2°C23.3°C23.0°C80.6%1015.2hPa0.0mm3.2km/hNNE11.2km/h212.5W/m²214W/m²
23.07.2024 15:1022.9°C22.9°C22.8°C80.9%1015.3hPa0.0mm3.2km/hNNE7.9km/h205.3W/m²211W/m²
23.07.2024 15:1522.6°C22.7°C22.5°C80.1%1015.2hPa0.0mm3.4km/hNNE9.7km/h200.0W/m²202W/m²
23.07.2024 15:2022.4°C22.5°C22.3°C80.6%1015.2hPa0.0mm4.1km/hNNE11.2km/h187.8W/m²199W/m²
23.07.2024 15:2522.1°C22.3°C21.9°C81.0%1015.2hPa0.0mm4.7km/hNNE14.4km/h162.0W/m²171W/m²
23.07.2024 15:3021.8°C21.9°C21.7°C82.0%1015.3hPa0.0mm6.0km/hNNE16.2km/h150.2W/m²153W/m²
23.07.2024 15:3521.6°C21.7°C21.6°C82.3%1015.4hPa0.0mm6.5km/hNNE13.0km/h180.7W/m²213W/m²
23.07.2024 15:4021.6°C21.8°C21.5°C82.4%1015.3hPa0.0mm6.5km/hNNE13.0km/h266.0W/m²292W/m²
23.07.2024 15:4521.8°C21.9°C21.8°C80.7%1015.4hPa0.0mm4.8km/hNNE16.2km/h320.7W/m²345W/m²
23.07.2024 15:5021.8°C21.9°C21.7°C79.4%1015.4hPa0.0mm6.3km/hNNE16.2km/h333.6W/m²403W/m²
23.07.2024 15:5522.5°C23.0°C22.0°C79.1%1015.3hPa0.0mm5.5km/hN9.7km/h765.0W/m²849W/m²
23.07.2024 16:0023.2°C23.3°C23.1°C76.9%1015.3hPa0.0mm4.5km/hNNE7.9km/h798.2W/m²802W/m²
23.07.2024 16:0523.5°C23.8°C23.3°C77.0%1015.1hPa0.0mm3.2km/hNE6.5km/h483.7W/m²802W/m²
23.07.2024 16:1023.9°C24.0°C23.8°C77.4%1015.2hPa0.0mm2.3km/hESE4.7km/h426.2W/m²459W/m²
23.07.2024 16:1523.8°C24.1°C23.6°C77.3%1015.1hPa0.0mm1.4km/hNNE6.5km/h425.8W/m²631W/m²
23.07.2024 16:2024.1°C24.4°C24.0°C75.8%1015.1hPa0.0mm1.4km/hNE7.9km/h617.2W/m²754W/m²
23.07.2024 16:2524.4°C24.4°C24.3°C75.1%1015.0hPa0.0mm1.4km/hNNE6.5km/h515.2W/m²645W/m²
23.07.2024 16:3024.3°C24.4°C24.2°C74.8%1015.0hPa0.0mm1.4km/hNNE6.5km/h232.7W/m²239W/m²
23.07.2024 16:3524.1°C24.1°C24.0°C75.6%1015.0hPa0.0mm1.4km/hNE6.5km/h213.5W/m²218W/m²
23.07.2024 16:4023.9°C24.0°C23.8°C76.1%1015.0hPa0.0mm1.7km/hNE9.7km/h196.8W/m²204W/m²
23.07.2024 16:4523.7°C23.8°C23.7°C75.9%1014.9hPa0.0mm3.2km/hN4.7km/h186.8W/m²195W/m²
23.07.2024 16:5023.7°C23.7°C23.7°C76.5%1014.9hPa0.0mm3.0km/hNNE4.7km/h158.2W/m²162W/m²
23.07.2024 16:5523.6°C23.7°C23.5°C76.6%1014.9hPa0.0mm1.4km/hN6.5km/h129.6W/m²142W/m²
23.07.2024 17:0023.4°C23.5°C23.2°C76.0%1014.9hPa0.0mm2.7km/hNNE11.2km/h132.7W/m²144W/m²
23.07.2024 17:0523.2°C23.2°C23.1°C77.5%1014.9hPa0.0mm3.2km/hNNE7.9km/h151.0W/m²158W/m²
23.07.2024 17:1023.0°C23.1°C22.9°C80.4%1014.8hPa0.0mm2.6km/hSE4.7km/h138.8W/m²142W/m²
23.07.2024 17:1522.7°C22.8°C22.7°C81.3%1014.8hPa0.0mm1.4km/hNNE4.7km/h137.2W/m²148W/m²
23.07.2024 17:2022.6°C22.7°C22.5°C82.3%1014.8hPa0.2mm1.4km/hNE6.5km/h116.7W/m²120W/m²
23.07.2024 17:2522.6°C22.6°C22.5°C83.0%1014.7hPa0.2mm1.4km/hNNE6.5km/h109.0W/m²114W/m²
23.07.2024 17:3022.4°C22.5°C22.3°C83.1%1014.7hPa0.0mm2.8km/hNNE7.9km/h105.8W/m²109W/m²
23.07.2024 17:3522.4°C22.4°C22.3°C84.7%1014.7hPa0.0mm3.0km/hNNE3.2km/h104.8W/m²111W/m²
23.07.2024 17:4022.3°C22.4°C22.3°C85.1%1014.7hPa0.0mm1.4km/hNE3.2km/h99.0W/m²100W/m²
23.07.2024 17:4522.3°C22.3°C22.3°C85.7%1014.6hPa0.2mm0.1km/hNE3.2km/h102.3W/m²105W/m²
23.07.2024 17:5022.3°C22.4°C22.3°C86.0%1014.6hPa0.2mm0.0km/hNE1.4km/h109.0W/m²116W/m²
23.07.2024 17:5522.4°C22.5°C22.3°C86.0%1014.6hPa0.0mm0.0km/hNE3.2km/h193.8W/m²327W/m²
23.07.2024 18:0022.7°C22.8°C22.5°C86.6%1014.6hPa0.0mm0.0km/hNNE3.2km/h319.3W/m²339W/m²
23.07.2024 18:0523.1°C23.4°C22.8°C85.8%1014.6hPa0.0mm0.0km/hNNW1.4km/h332.2W/m²339W/m²
23.07.2024 18:1023.4°C23.4°C23.3°C83.8%1014.5hPa0.0mm0.3km/hNNE3.2km/h163.8W/m²227W/m²
23.07.2024 18:1523.2°C23.3°C23.2°C82.9%1014.5hPa0.2mm1.1km/hNNE3.2km/h202.0W/m²272W/m²
23.07.2024 18:2023.3°C23.3°C23.2°C83.7%1014.5hPa0.0mm1.4km/hE3.2km/h144.7W/m²258W/m²
23.07.2024 18:2523.2°C23.3°C23.1°C83.5%1014.4hPa0.0mm0.4km/hESE3.2km/h61.8W/m²72W/m²
23.07.2024 18:3022.9°C23.1°C22.8°C83.5%1014.4hPa0.0mm0.0km/hSE3.2km/h47.8W/m²51W/m²
23.07.2024 18:3522.7°C22.8°C22.6°C84.0%1014.4hPa0.2mm0.0km/hSE3.2km/h42.8W/m²46W/m²
23.07.2024 18:4022.5°C22.6°C22.4°C84.5%1014.5hPa0.0mm0.0km/hSE1.4km/h40.8W/m²44W/m²
23.07.2024 18:4522.3°C22.4°C22.3°C85.2%1014.5hPa0.0mm0.0km/hSE1.4km/h57.0W/m²69W/m²
23.07.2024 18:5022.3°C22.4°C22.3°C86.5%1014.5hPa0.0mm0.0km/hNE1.4km/h137.2W/m²220W/m²
23.07.2024 18:5522.4°C22.5°C22.4°C87.0%1014.5hPa0.0mm0.0km/hE3.2km/h224.5W/m²269W/m²
23.07.2024 19:0022.6°C22.8°C22.5°C86.8%1014.5hPa0.0mm0.0km/hE3.2km/h267.8W/m²272W/m²
23.07.2024 19:0522.8°C22.9°C22.8°C86.7%1014.4hPa0.0mm0.7km/hESE3.2km/h166.3W/m²197W/m²
23.07.2024 19:1022.8°C22.9°C22.8°C85.4%1014.3hPa0.0mm1.4km/hSSE1.4km/h122.8W/m²156W/m²
23.07.2024 19:1523.0°C23.1°C22.8°C84.3%1014.3hPa0.0mm0.9km/hS3.2km/h144.4W/m²149W/m²
23.07.2024 19:2023.2°C23.3°C23.1°C84.0%1014.3hPa0.0mm1.4km/hS1.4km/h130.5W/m²141W/m²
23.07.2024 19:2523.4°C23.4°C23.3°C83.7%1014.2hPa0.0mm0.4km/hS0.0km/h110.5W/m²128W/m²
23.07.2024 19:3023.5°C23.6°C23.4°C82.6%1014.2hPa0.0mm0.0km/hS1.4km/h74.3W/m²111W/m²
23.07.2024 19:3523.4°C23.5°C23.3°C81.3%1014.1hPa0.0mm0.0km/hS1.4km/h38.0W/m²40W/m²
23.07.2024 19:4023.3°C23.3°C23.3°C82.5%1014.1hPa0.0mm0.0km/hS1.4km/h32.7W/m²33W/m²
23.07.2024 19:4523.2°C23.3°C23.1°C83.9%1014.1hPa0.0mm0.0km/hS0.0km/h30.8W/m²32W/m²
23.07.2024 19:5023.0°C23.2°C22.9°C84.4%1014.1hPa0.0mm0.0km/hENE1.4km/h28.7W/m²30W/m²
23.07.2024 19:5522.9°C23.0°C22.7°C85.0%1014.2hPa0.0mm0.0km/hS3.2km/h26.5W/m²28W/m²
23.07.2024 20:0022.6°C22.7°C22.5°C85.6%1014.2hPa0.0mm0.0km/hS3.2km/h23.3W/m²25W/m²
23.07.2024 20:0522.4°C22.5°C22.3°C86.0%1014.3hPa0.0mm0.0km/hS1.4km/h23.0W/m²23W/m²
23.07.2024 20:1022.3°C22.3°C22.2°C86.0%1014.3hPa0.0mm0.0km/hS1.4km/h20.7W/m²23W/m²
23.07.2024 20:1522.2°C22.2°C22.1°C86.8%1014.3hPa0.0mm0.0km/hS1.4km/h17.4W/m²19W/m²
23.07.2024 20:2022.0°C22.1°C21.9°C87.0%1014.3hPa0.0mm0.0km/hS1.4km/h13.0W/m²16W/m²
23.07.2024 20:2521.9°C21.9°C21.8°C87.0%1014.3hPa0.0mm0.0km/hS3.2km/h10.2W/m²11W/m²
23.07.2024 20:3021.8°C21.8°C21.7°C87.9%1014.3hPa0.0mm0.0km/hS3.2km/h7.7W/m²9W/m²
23.07.2024 20:3521.6°C21.7°C21.6°C88.0%1014.4hPa0.0mm0.0km/hS3.2km/h5.7W/m²7W/m²
23.07.2024 20:4021.5°C21.6°C21.4°C88.4%1014.5hPa0.0mm0.0km/hS3.2km/h2.5W/m²5W/m²
23.07.2024 20:4521.4°C21.4°C21.3°C89.0%1014.4hPa0.0mm0.0km/hNNE3.2km/h0.0W/m²0W/m²
23.07.2024 20:5021.3°C21.3°C21.3°C89.2%1014.5hPa0.0mm0.0km/hNNE0.0km/h0.0W/m²0W/m²
23.07.2024 20:5521.3°C21.3°C21.2°C89.6%1014.6hPa0.0mm0.0km/hSE3.2km/h0.0W/m²0W/m²
23.07.2024 21:0021.1°C21.2°C21.1°C89.9%1014.5hPa0.0mm1.3km/hS4.7km/h0.0W/m²0W/m²
23.07.2024 21:0521.0°C21.1°C20.9°C90.0%1014.6hPa0.0mm0.7km/hS0.0km/h0.0W/m²0W/m²
23.07.2024 21:1020.9°C20.9°C20.8°C90.0%1014.6hPa0.0mm0.0km/hS3.2km/h0.0W/m²0W/m²
23.07.2024 21:1520.8°C20.8°C20.8°C90.0%1014.6hPa0.0mm1.0km/hSSW3.2km/h0.0W/m²0W/m²
23.07.2024 21:2020.7°C20.8°C20.7°C90.0%1014.6hPa0.0mm1.3km/hSSW1.4km/h0.0W/m²0W/m²
23.07.2024 21:2520.7°C20.7°C20.7°C90.2%1014.8hPa0.0mm0.0km/hSSW1.4km/h0.0W/m²0W/m²
23.07.2024 21:3020.7°C20.7°C20.7°C90.8%1014.8hPa0.0mm0.0km/hSSW1.4km/h0.0W/m²0W/m²
23.07.2024 21:3520.6°C20.7°C20.6°C90.1%1014.8hPa0.0mm0.0km/hSE3.2km/h0.0W/m²0W/m²
23.07.2024 21:4020.5°C20.6°C20.5°C90.1%1014.9hPa0.0mm0.0km/hSE0.0km/h0.0W/m²0W/m²
23.07.2024 21:4520.4°C20.5°C20.4°C90.0%1014.9hPa0.0mm0.0km/hSE0.0km/h0.0W/m²0W/m²
23.07.2024 21:5020.4°C20.4°C20.3°C90.0%1014.8hPa0.0mm0.0km/hSE1.4km/h0.0W/m²0W/m²
23.07.2024 21:5520.3°C20.4°C20.3°C90.9%1014.8hPa0.0mm0.0km/hSE0.0km/h0.0W/m²0W/m²
23.07.2024 22:0020.2°C20.3°C20.2°C91.0%1014.9hPa0.0mm0.0km/hSE0.0km/h0.0W/m²0W/m²
23.07.2024 22:0520.2°C20.2°C20.2°C90.7%1014.9hPa0.0mm0.0km/hSE0.0km/h0.0W/m²0W/m²
23.07.2024 22:1020.1°C20.2°C20.1°C90.6%1014.9hPa0.0mm0.0km/hSE3.2km/h0.0W/m²0W/m²
23.07.2024 22:1520.1°C20.1°C20.1°C91.0%1015.0hPa0.0mm0.0km/hESE1.4km/h0.0W/m²0W/m²
23.07.2024 22:2020.1°C20.1°C20.1°C91.0%1015.0hPa0.0mm0.0km/hESE1.4km/h0.0W/m²0W/m²
23.07.2024 22:2520.1°C20.1°C20.0°C91.0%1015.0hPa0.0mm0.0km/hESE1.4km/h0.0W/m²0W/m²
23.07.2024 22:3020.0°C20.1°C19.9°C91.0%1014.9hPa0.0mm0.0km/hSE1.4km/h0.0W/m²0W/m²
23.07.2024 22:3519.9°C19.9°C19.9°C91.0%1015.0hPa0.0mm0.0km/hSE0.0km/h0.0W/m²0W/m²
23.07.2024 22:4019.8°C19.9°C19.8°C91.0%1015.0hPa0.0mm0.0km/hSE1.4km/h0.0W/m²0W/m²
23.07.2024 22:4519.8°C19.8°C19.8°C91.0%1015.1hPa0.0mm0.0km/hENE1.4km/h0.0W/m²0W/m²
23.07.2024 22:5019.8°C19.8°C19.8°C91.0%1015.0hPa0.0mm0.0km/hENE1.4km/h0.0W/m²0W/m²
23.07.2024 22:5519.7°C19.8°C19.7°C91.0%1015.1hPa0.0mm0.0km/hESE1.4km/h0.0W/m²0W/m²
23.07.2024 23:0019.6°C19.7°C19.6°C91.0%1015.0hPa0.0mm0.0km/hESE1.4km/h0.0W/m²0W/m²
23.07.2024 23:0519.6°C19.6°C19.5°C91.9%1015.0hPa0.0mm0.0km/hSE3.2km/h0.0W/m²0W/m²
23.07.2024 23:1019.6°C19.6°C19.5°C92.0%1015.2hPa0.0mm0.0km/hSE1.4km/h0.0W/m²0W/m²
23.07.2024 23:1519.6°C19.6°C19.6°C92.0%1015.1hPa0.0mm0.0km/hSE0.0km/h0.0W/m²0W/m²
23.07.2024 23:2019.7°C19.7°C19.6°C91.8%1015.1hPa0.0mm0.0km/hSSE1.4km/h0.0W/m²0W/m²
23.07.2024 23:2519.7°C19.7°C19.6°C91.0%1015.1hPa0.0mm0.0km/hSSE3.2km/h0.0W/m²0W/m²
23.07.2024 23:3019.6°C19.7°C19.6°C91.0%1015.1hPa0.0mm0.0km/hSW3.2km/h0.0W/m²0W/m²
23.07.2024 23:3519.6°C19.6°C19.6°C91.0%1015.1hPa0.0mm0.5km/hW3.2km/h0.0W/m²0W/m²
23.07.2024 23:4019.6°C19.6°C19.6°C91.0%1015.1hPa0.0mm0.0km/hW1.4km/h0.0W/m²0W/m²
23.07.2024 23:4519.6°C19.7°C19.6°C91.0%1015.1hPa0.0mm0.0km/hSSE3.2km/h0.0W/m²0W/m²
23.07.2024 23:5019.6°C19.6°C19.5°C91.0%1015.2hPa0.0mm0.7km/hSSW1.4km/h0.0W/m²0W/m²
23.07.2024 23:5519.6°C19.6°C19.6°C91.0%1015.2hPa0.0mm0.4km/hSSW1.4km/h0.0W/m²0W/m²
24.07.2024 00:0019.5°C19.6°C19.4°C91.0%1015.3hPa0.0mm0.0km/hSSW4.7km/h0.0W/m²0W/m²
24.07.2024 00:0519.4°C19.5°C19.4°C91.0%1015.4hPa0.0mm1.4km/hSSW4.7km/h0.0W/m²0W/m²
24.07.2024 00:1019.4°C19.4°C19.3°C91.0%1015.3hPa0.0mm1.4km/hS6.5km/h0.0W/m²0W/m²
24.07.2024 00:1519.4°C19.4°C19.3°C91.0%1015.3hPa0.0mm2.4km/hSW4.7km/h0.0W/m²0W/m²
24.07.2024 00:2019.4°C19.5°C19.4°C91.0%1015.3hPa0.0mm1.6km/hW1.4km/h0.0W/m²0W/m²
24.07.2024 00:2519.5°C19.5°C19.4°C91.0%1015.3hPa0.0mm0.1km/hW3.2km/h0.0W/m²0W/m²
24.07.2024 00:3019.4°C19.5°C19.4°C90.9%1015.3hPa0.0mm0.5km/hSSE3.2km/h0.0W/m²0W/m²
24.07.2024 00:3519.3°C19.4°C19.3°C90.0%1015.2hPa0.0mm1.4km/hSE1.4km/h0.0W/m²0W/m²
24.07.2024 00:4019.3°C19.4°C19.3°C91.0%1015.2hPa0.0mm0.3km/hSE1.4km/h0.0W/m²0W/m²
24.07.2024 00:4519.4°C19.4°C19.4°C91.0%1015.3hPa0.0mm0.0km/hSE1.4km/h0.0W/m²0W/m²
24.07.2024 00:5019.4°C19.4°C19.3°C91.0%1015.3hPa0.0mm0.0km/hSE1.4km/h0.0W/m²0W/m²
24.07.2024 00:5519.2°C19.3°C19.1°C91.0%1015.3hPa0.0mm0.2km/hSSW6.5km/h0.0W/m²0W/m²
24.07.2024 01:0019.1°C19.1°C19.0°C91.0%1015.2hPa0.0mm1.4km/hSSW4.7km/h0.0W/m²0W/m²
24.07.2024 01:0518.9°C19.0°C18.9°C91.0%1015.2hPa0.0mm1.4km/hSSW4.7km/h0.0W/m²0W/m²
24.07.2024 01:1018.9°C19.0°C18.9°C91.0%1015.1hPa0.0mm0.9km/hSSW1.4km/h0.0W/m²0W/m²
24.07.2024 01:1519.0°C19.1°C18.9°C91.0%1015.0hPa0.0mm0.0km/hSSW3.2km/h0.0W/m²0W/m²
24.07.2024 01:2019.0°C19.1°C19.0°C91.0%1015.0hPa0.0mm0.0km/hSSW0.0km/h0.0W/m²0W/m²
24.07.2024 01:2518.9°C19.0°C18.9°C91.0%1014.9hPa0.0mm0.0km/hSSW1.4km/h0.0W/m²0W/m²
24.07.2024 01:3018.9°C18.9°C18.9°C91.0%1014.9hPa0.0mm0.0km/hSSW1.4km/h0.0W/m²0W/m²
24.07.2024 01:3518.9°C18.9°C18.9°C91.0%1014.9hPa0.0mm0.0km/hSSW1.4km/h0.0W/m²0W/m²
24.07.2024 01:4018.9°C18.9°C18.8°C91.0%1015.0hPa0.0mm0.0km/hSSW1.4km/h0.0W/m²0W/m²
24.07.2024 01:4518.8°C18.9°C18.8°C91.3%1015.0hPa0.0mm0.0km/hSSW1.4km/h0.0W/m²0W/m²
24.07.2024 01:5018.9°C18.9°C18.8°C92.0%1015.0hPa0.0mm0.0km/hSSW1.4km/h0.0W/m²0W/m²
24.07.2024 01:5518.8°C18.9°C18.8°C92.0%1015.0hPa0.0mm0.0km/hSSW3.2km/h0.0W/m²0W/m²
24.07.2024 02:0018.7°C18.8°C18.7°C92.0%1015.1hPa0.0mm0.0km/hSSW1.4km/h0.0W/m²0W/m²
24.07.2024 02:0518.7°C18.7°C18.6°C92.0%1015.0hPa0.0mm0.0km/hSSW1.4km/h0.0W/m²0W/m²
24.07.2024 02:1018.7°C18.7°C18.6°C92.0%1015.0hPa0.0mm0.0km/hSSW1.4km/h0.0W/m²0W/m²
24.07.2024 02:1518.7°C18.7°C18.6°C92.0%1015.0hPa0.0mm0.0km/hSSW0.0km/h0.0W/m²0W/m²
24.07.2024 02:2018.6°C18.7°C18.6°C92.0%1015.0hPa0.0mm0.0km/hSSE3.2km/h0.0W/m²0W/m²
24.07.2024 02:2518.6°C18.6°C18.6°C92.0%1015.0hPa0.0mm0.6km/hSSE3.2km/h0.0W/m²0W/m²
24.07.2024 02:3018.6°C18.6°C18.5°C92.0%1015.0hPa0.0mm0.6km/hSSE0.0km/h0.0W/m²0W/m²
24.07.2024 02:3518.6°C18.6°C18.5°C92.0%1015.0hPa0.0mm0.0km/hSSE0.0km/h0.0W/m²0W/m²
24.07.2024 02:4018.5°C18.6°C18.4°C92.0%1015.0hPa0.0mm0.0km/hSSE1.4km/h0.0W/m²0W/m²
24.07.2024 02:4518.4°C18.5°C18.4°C92.2%1015.0hPa0.0mm0.0km/hSSE1.4km/h0.0W/m²0W/m²
24.07.2024 02:5018.3°C18.4°C18.3°C92.0%1015.0hPa0.0mm0.0km/hENE1.4km/h0.0W/m²0W/m²
24.07.2024 02:5518.3°C18.3°C18.2°C92.0%1014.9hPa0.0mm0.0km/hENE1.4km/h0.0W/m²0W/m²
24.07.2024 03:0018.2°C18.3°C18.2°C